Superfast Xi — SYCF — position and weather

sailwx.info

Track history (hours):
 
Tides and Currents Weather Stations Pressure Air Temp Water Temp Dewpoint Dewpoint Depression Visibility Wind Speed Wind Dir Waves Ship Positions

Superfast Xi

Last reported at 2017-Apr-28 00:51 UTC. Time now 2017-May-01 06:24 UTC.
Position N 40°50' E 018°34'.

Length 200 m; draft 6.1 m.

Type: Passenger vessel. MMSI: 239918000.

Date/timePositionNaut miles runAvg speedWind from/ knotsBaromVisibWave heightAir tempDewpointWater temp
2017-Apr-28 00:51N 40°50' E 018°34'1227.3
2017-Apr-28 00:24N 40°41' E 018°46'1827.4
2017-Apr-27 23:45N 40°29' E 019°03'727.4
2017-Apr-27 23:30N 40°24' E 019°09'31110.0
2017-Apr-26 16:27N 43°41' E 013°44'11 3.1
2017-Apr-26 12:56N 43°37' E 013°30'0 0.0
2017-Apr-26 12:29N 43°37' E 013°30'1 1.7
2017-Apr-26 12:00N 43°38' E 013°30'919.2
2017-Apr-26 11:30N 43°42' E 013°41'75 1.8
2017-Apr-24 18:02N 42°56' E 015°03'726.9
2017-Apr-24 17:46N 43°00' E 014°55'726.8
2017-Apr-24 17:30N 43°05' E 014°48'1326.8
2017-Apr-24 17:00N 43°14' E 014°34'1326.7
2017-Apr-24 16:30N 43°22' E 014°20'1427.2
2017-Apr-24 15:59N 43°31' E 014°05'1327.5
2017-Apr-24 15:30N 43°39' E 013°50'1223.9
2017-Apr-24 15:00N 43°40' E 013°34'40 0.9
2017-Apr-22 18:15N 43°20' E 014°22'626.3
2017-Apr-22 18:00N 43°24' E 014°15'1326.3
2017-Apr-22 17:30N 43°33' E 014°01'1326.1
2017-Apr-22 17:00N 43°41' E 013°47'1223.8
2017-Apr-22 16:30N 43°39' E 013°31'2 0.5
2017-Apr-22 13:14N 43°37' E 013°30'1513.1
2017-Apr-22 12:05N 43°39' E 013°51'226.9
2017-Apr-22 12:00N 43°38' E 013°54'  
Track history (hours):
 
Tides and Currents Weather Stations Pressure Air Temp Water Temp Dewpoint Dewpoint Depression Visibility Wind Speed Wind Dir Waves Ship Positions

Superfast Xi

Last reported at 2017-Apr-28 00:51 UTC. Time now 2017-May-01 06:24 UTC.
Position N 40°50' E 018°34'.

Length 200 m; draft 6.1 m.

Type: Passenger vessel. MMSI: 239918000.

Date/timePositionNaut miles runAvg speedWind from/ knotsBaromVisibWave heightAir tempDewpointWater temp
2017-Apr-28 00:51N 40°50' E 018°34'1227.3
2017-Apr-28 00:24N 40°41' E 018°46'1827.4
2017-Apr-27 23:45N 40°29' E 019°03'727.4
2017-Apr-27 23:30N 40°24' E 019°09'31110.0
2017-Apr-26 16:27N 43°41' E 013°44'11 3.1
2017-Apr-26 12:56N 43°37' E 013°30'0 0.0
2017-Apr-26 12:29N 43°37' E 013°30'1 1.7
2017-Apr-26 12:00N 43°38' E 013°30'919.2
2017-Apr-26 11:30N 43°42' E 013°41'75 1.8
2017-Apr-24 18:02N 42°56' E 015°03'726.9
2017-Apr-24 17:46N 43°00' E 014°55'726.8
2017-Apr-24 17:30N 43°05' E 014°48'1326.8
2017-Apr-24 17:00N 43°14' E 014°34'1326.7
2017-Apr-24 16:30N 43°22' E 014°20'1427.2
2017-Apr-24 15:59N 43°31' E 014°05'1327.5
2017-Apr-24 15:30N 43°39' E 013°50'1223.9
2017-Apr-24 15:00N 43°40' E 013°34'40 0.9
2017-Apr-22 18:15N 43°20' E 014°22'626.3
2017-Apr-22 18:00N 43°24' E 014°15'1326.3
2017-Apr-22 17:30N 43°33' E 014°01'1326.1
2017-Apr-22 17:00N 43°41' E 013°47'1223.8
2017-Apr-22 16:30N 43°39' E 013°31'2 0.5
2017-Apr-22 13:14N 43°37' E 013°30'1513.1
2017-Apr-22 12:05N 43°39' E 013°51'226.9
2017-Apr-22 12:00N 43°38' E 013°54'  

Dump ship's entire track history